createdAt,value
2023-02-15T00:01:28.812Z,3.14
2023-02-15T00:04:44.784Z,3.08
2023-02-15T00:07:47.409Z,3.06
2023-02-15T00:10:48.689Z,3.06
2023-02-15T00:13:51.233Z,3.01
2023-02-15T00:16:54.648Z,3.00
2023-02-15T00:19:55.964Z,2.88
2023-02-15T00:22:58.670Z,2.87
2023-02-15T00:26:07.359Z,2.82
2023-02-15T00:29:11.415Z,2.78
2023-02-15T00:32:13.363Z,2.77
2023-02-15T00:35:15.968Z,2.73
2023-02-15T00:38:18.509Z,2.71
2023-02-15T00:41:19.795Z,2.66
2023-02-15T00:44:22.312Z,2.62
2023-02-15T00:47:26.732Z,2.58
2023-02-15T00:50:27.985Z,2.60
2023-02-15T00:53:31.858Z,2.55
2023-02-15T00:56:34.376Z,2.49
2023-02-15T00:59:35.629Z,2.45
2023-02-15T01:02:38.782Z,2.45
2023-02-15T01:05:40.670Z,2.43
2023-02-15T01:08:43.821Z,2.36
2023-02-15T01:11:46.326Z,2.33
2023-02-15T01:14:47.634Z,2.34
2023-02-15T01:17:54.072Z,2.29
2023-02-15T01:20:55.353Z,2.28
2023-02-15T01:23:57.910Z,2.23
2023-02-15T01:26:59.247Z,2.16
2023-02-15T01:30:01.769Z,2.15
2023-02-15T01:33:05.301Z,2.13
2023-02-15T01:36:07.118Z,2.11
2023-02-15T01:42:31.905Z,2.07
2023-02-15T01:45:33.414Z,2.02
2023-02-15T01:48:41.357Z,2.00
2023-02-15T01:51:45.886Z,1.99
2023-02-15T01:54:49.856Z,1.98
2023-02-15T01:57:51.984Z,1.94
2023-02-15T02:00:55.797Z,1.92
2023-02-15T02:04:03.235Z,1.90
2023-02-15T02:07:07.971Z,1.80
2023-02-15T02:10:12.290Z,1.80
2023-02-15T02:13:14.915Z,1.78
2023-02-15T02:16:22.396Z,1.75
2023-02-15T02:20:00.324Z,1.75
2023-02-15T02:23:29.283Z,1.76
2023-02-15T02:27:08.765Z,1.72
2023-02-15T02:30:47.765Z,1.70
2023-02-15T02:33:58.075Z,1.65
2023-02-15T02:37:09.877Z,1.66
2023-02-15T02:40:18.438Z,1.60
2023-02-15T02:43:27.839Z,1.56
2023-02-15T02:46:33.312Z,1.58
2023-02-15T02:49:38.523Z,1.58
2023-02-15T02:52:42.327Z,1.56
2023-02-15T02:55:48.611Z,1.55
2023-02-15T02:58:54.683Z,1.56
2023-02-15T03:02:01.656Z,1.50
2023-02-15T03:05:10.743Z,1.50
2023-02-15T03:08:14.200Z,1.52
2023-02-15T03:14:40.454Z,1.44
2023-02-15T03:17:45.464Z,1.37
2023-02-15T03:27:37.309Z,1.32
2023-02-15T03:34:07.400Z,1.38
2023-02-15T03:37:17.528Z,1.40
2023-02-15T03:40:40.824Z,1.37
2023-02-15T03:43:50.478Z,1.35
2023-02-15T03:46:57.525Z,1.34
2023-02-15T03:50:04.113Z,1.37
2023-02-15T03:53:10.393Z,1.38
2023-02-15T04:03:23.100Z,1.52
2023-02-15T04:10:05.276Z,1.41
2023-02-15T04:13:06.547Z,1.33
2023-02-15T04:19:48.089Z,1.35
2023-02-15T04:23:08.719Z,1.31
2023-02-15T04:26:11.891Z,1.29
2023-02-15T04:32:38.962Z,1.26
2023-02-15T04:35:41.486Z,1.24
2023-02-15T04:38:44.065Z,1.22
2023-02-15T04:45:07.869Z,1.21
2023-02-15T04:48:10.433Z,1.20
2023-02-15T04:51:11.945Z,1.20
2023-02-15T04:54:14.683Z,1.19
2023-02-15T04:57:16.784Z,1.20
2023-02-15T05:00:20.042Z,1.15
2023-02-15T05:03:21.344Z,1.16
2023-02-15T05:06:23.880Z,1.16
2023-02-15T05:09:25.288Z,1.15
2023-02-15T05:12:28.473Z,1.16
2023-02-15T05:15:31.028Z,1.17
2023-02-15T05:18:34.461Z,1.12
2023-02-15T05:21:35.748Z,1.12
2023-02-15T05:28:21.260Z,1.11
2023-02-15T05:31:22.990Z,1.06
2023-02-15T05:34:25.784Z,1.04
2023-02-15T05:37:27.076Z,1.02
2023-02-15T05:40:29.748Z,1.02
2023-02-15T05:43:32.458Z,1.00
2023-02-15T05:46:34.989Z,1.01
2023-02-15T05:49:36.347Z,0.98
2023-02-15T05:52:39.032Z,0.96
2023-02-15T05:55:40.941Z,0.95
2023-02-15T05:59:04.153Z,0.97
2023-02-15T06:02:06.661Z,0.92
2023-02-15T06:05:09.940Z,0.92
2023-02-15T06:08:11.186Z,0.90
2023-02-15T06:11:13.887Z,0.88
2023-02-15T06:14:15.931Z,0.88
2023-02-15T06:17:18.741Z,0.84
2023-02-15T06:20:20.023Z,0.88
2023-02-15T06:23:22.560Z,0.87
2023-02-15T06:26:23.935Z,0.85
2023-02-15T06:29:27.173Z,0.83
2023-02-15T06:32:28.483Z,0.84
2023-02-15T06:35:31.016Z,0.81
2023-02-15T06:38:32.334Z,0.86
2023-02-15T06:41:34.935Z,0.95
2023-02-15T06:44:36.868Z,0.94
2023-02-15T06:47:39.402Z,1.00
2023-02-15T06:50:40.851Z,1.06
2023-02-15T06:53:44.278Z,1.09
2023-02-15T06:56:46.820Z,1.12
2023-02-15T06:59:50.079Z,1.10
2023-02-15T07:02:55.768Z,1.13
2023-02-15T07:05:59.005Z,1.14
2023-02-15T07:09:00.370Z,1.27
2023-02-15T07:12:19.652Z,1.34
2023-02-15T07:15:22.462Z,1.41
2023-02-15T07:18:24.992Z,1.53
2023-02-15T07:21:26.473Z,1.54
2023-02-15T07:24:29.100Z,1.61
2023-02-15T07:27:32.063Z,1.72
2023-02-15T07:30:35.466Z,1.66
2023-02-15T07:33:36.740Z,1.78
2023-02-15T07:36:39.295Z,1.85
2023-02-15T07:39:40.547Z,1.92
2023-02-15T07:42:43.159Z,1.97
2023-02-15T07:45:45.127Z,1.92
2023-02-15T07:48:47.612Z,1.95
2023-02-15T07:51:48.873Z,2.01
2023-02-15T07:54:51.385Z,2.00
2023-02-15T07:57:54.092Z,2.03
2023-02-15T08:00:58.050Z,2.21
2023-02-15T08:03:59.786Z,2.24
2023-02-15T08:07:02.345Z,2.17
2023-02-15T08:10:03.972Z,2.17
2023-02-15T08:13:06.480Z,2.26
2023-02-15T08:16:08.408Z,2.23
2023-02-15T08:19:13.152Z,2.21
2023-02-15T08:25:36.302Z,2.46
2023-02-15T08:28:39.870Z,2.34
2023-02-15T08:31:43.789Z,2.52
2023-02-15T08:34:45.203Z,2.45
2023-02-15T08:37:47.740Z,2.44
2023-02-15T08:40:48.999Z,2.62
2023-02-15T08:43:55.094Z,2.57
2023-02-15T08:47:02.793Z,2.58
2023-02-15T08:50:06.342Z,2.69
2023-02-15T08:53:07.623Z,2.75
2023-02-15T08:59:31.343Z,3.03
2023-02-15T09:02:33.269Z,3.02
2023-02-15T09:05:35.967Z,3.10
2023-02-15T09:08:37.731Z,3.03
2023-02-15T09:11:42.181Z,3.09
2023-02-15T09:14:44.958Z,3.31
2023-02-15T09:17:46.917Z,3.22
2023-02-15T09:20:50.507Z,3.21
2023-02-15T09:23:56.879Z,3.31
2023-02-15T09:26:59.355Z,3.43
2023-02-15T09:30:00.756Z,3.57
2023-02-15T09:33:04.096Z,3.66
2023-02-15T09:36:06.473Z,3.74
2023-02-15T09:39:11.122Z,3.76
2023-02-15T09:42:40.107Z,3.76
2023-02-15T09:45:56.046Z,3.77
2023-02-15T09:49:06.653Z,3.94
2023-02-15T09:56:08.513Z,4.07
2023-02-15T09:59:17.277Z,3.97
2023-02-15T10:02:38.260Z,4.13
2023-02-15T10:05:55.188Z,4.24
2023-02-15T10:09:25.320Z,4.31
2023-02-15T10:12:48.130Z,4.47
2023-02-15T10:16:08.226Z,4.64
2023-02-15T10:19:16.903Z,4.84
2023-02-15T10:22:34.323Z,4.76
2023-02-15T10:25:45.882Z,4.78
2023-02-15T10:28:51.344Z,4.88
2023-02-15T10:32:00.346Z,4.96
2023-02-15T10:35:07.566Z,5.09
2023-02-15T10:38:22.668Z,5.37
2023-02-15T10:41:39.422Z,5.54
2023-02-15T10:44:53.136Z,5.91
2023-02-15T10:48:17.950Z,6.64
2023-02-15T10:51:33.904Z,7.48
2023-02-15T10:58:12.968Z,8.47
2023-02-15T11:01:23.559Z,8.88
2023-02-15T11:04:41.464Z,9.13
2023-02-15T11:07:47.733Z,9.25
2023-02-15T11:10:53.345Z,9.42
2023-02-15T11:14:06.005Z,9.17
2023-02-15T11:17:12.695Z,9.65
2023-02-15T11:20:20.776Z,10.17
2023-02-15T11:23:24.453Z,10.04
2023-02-15T11:26:33.456Z,10.06
2023-02-15T11:29:40.041Z,10.42
2023-02-15T11:32:46.431Z,10.49
2023-02-15T11:35:53.364Z,10.99
2023-02-15T11:39:04.078Z,11.22
2023-02-15T11:42:13.757Z,11.03
2023-02-15T11:45:24.858Z,11.36
2023-02-15T11:48:26.330Z,11.40
2023-02-15T11:54:54.246Z,11.94
2023-02-15T11:58:03.133Z,12.23
2023-02-15T12:04:40.897Z,12.62
2023-02-15T12:07:47.472Z,12.32
2023-02-15T12:11:00.747Z,12.36
2023-02-15T12:14:05.804Z,12.77
2023-02-15T12:17:14.232Z,12.62
2023-02-15T12:20:28.641Z,12.69
2023-02-15T12:23:31.663Z,12.47
2023-02-15T12:26:35.504Z,12.62
2023-02-15T12:33:16.339Z,12.10
2023-02-15T12:36:21.607Z,11.57
2023-02-15T12:42:47.371Z,11.37
2023-02-15T12:45:50.686Z,11.31
2023-02-15T12:49:20.414Z,11.50
2023-02-15T12:52:26.864Z,11.31
2023-02-15T12:55:31.380Z,11.35
2023-02-15T12:58:37.787Z,11.41
2023-02-15T13:01:41.782Z,11.44
2023-02-15T13:04:49.233Z,11.13
2023-02-15T13:07:52.710Z,11.28
2023-02-15T13:10:57.783Z,11.14
2023-02-15T13:14:00.946Z,11.06
2023-02-15T13:17:08.717Z,10.91
2023-02-15T13:20:19.090Z,10.74
2023-02-15T13:23:29.204Z,10.84
2023-02-15T13:26:32.004Z,10.84
2023-02-15T13:29:38.577Z,10.77
2023-02-15T13:32:43.948Z,10.95
2023-02-15T13:35:51.129Z,10.96
2023-02-15T13:39:05.183Z,11.07
2023-02-15T13:42:21.319Z,10.93
2023-02-15T13:45:38.851Z,10.62
2023-02-15T13:48:51.290Z,10.62
2023-02-15T13:55:37.114Z,10.77
2023-02-15T13:59:12.574Z,10.90
2023-02-15T14:02:46.351Z,10.60
2023-02-15T14:06:28.940Z,10.65
2023-02-15T14:09:44.823Z,10.74
2023-02-15T14:13:03.157Z,10.75
2023-02-15T14:19:42.349Z,10.76
2023-02-15T14:22:52.936Z,10.78
2023-02-15T14:25:57.696Z,10.72
2023-02-15T14:29:17.766Z,10.71
2023-02-15T14:35:48.800Z,10.66
2023-02-15T14:38:59.419Z,10.70
2023-02-15T14:42:06.417Z,10.54
2023-02-15T14:45:19.875Z,10.54
2023-02-15T14:48:26.130Z,10.50
2023-02-15T14:52:00.130Z,10.47
2023-02-15T15:01:56.952Z,10.42
2023-02-15T15:05:07.649Z,10.53
2023-02-15T15:08:27.294Z,10.40
2023-02-15T15:11:48.079Z,10.31
2023-02-15T15:14:50.223Z,10.31
2023-02-15T15:21:54.104Z,10.34
2023-02-15T15:24:58.308Z,10.20
2023-02-15T15:28:00.393Z,10.14
2023-02-15T15:31:11.044Z,10.09
2023-02-15T15:34:29.831Z,10.11
2023-02-15T15:38:00.356Z,10.06
2023-02-15T15:45:32.857Z,9.86
2023-02-15T15:52:02.785Z,9.60
2023-02-15T15:55:14.492Z,9.52
2023-02-15T15:58:19.911Z,9.39
2023-02-15T16:01:27.868Z,9.30
2023-02-15T16:04:32.373Z,9.12
2023-02-15T16:10:54.732Z,8.85
2023-02-15T16:17:22.707Z,8.62
2023-02-15T16:24:10.313Z,8.38
2023-02-15T16:27:25.405Z,8.21
2023-02-15T16:33:55.622Z,7.98
2023-02-15T16:37:15.492Z,7.86
2023-02-15T16:44:08.825Z,7.62
2023-02-15T16:47:17.030Z,7.53
2023-02-15T16:50:22.801Z,7.41
2023-02-15T16:53:27.943Z,7.32
2023-02-15T16:56:32.220Z,7.21
2023-02-15T16:59:37.883Z,7.12
2023-02-15T17:02:56.093Z,7.02
2023-02-15T17:06:01.501Z,6.99
2023-02-15T17:09:04.798Z,6.90
2023-02-15T17:12:12.037Z,6.83
2023-02-15T17:15:27.072Z,6.79
2023-02-15T17:18:32.242Z,6.70
2023-02-15T17:21:40.644Z,6.62
2023-02-15T17:24:45.303Z,6.51
2023-02-15T17:27:52.456Z,6.46
2023-02-15T17:30:57.013Z,6.39
2023-02-15T17:33:58.840Z,6.32
2023-02-15T17:37:03.767Z,6.24
2023-02-15T17:40:17.322Z,6.17
2023-02-15T17:43:19.815Z,6.12
2023-02-15T17:46:22.288Z,6.08
2023-02-15T17:49:34.172Z,6.02
2023-02-15T17:52:36.730Z,5.96
2023-02-15T17:55:43.593Z,5.90
2023-02-15T17:58:44.982Z,5.87
2023-02-15T18:02:08.362Z,5.82
2023-02-15T18:05:31.819Z,5.82
2023-02-15T18:08:53.150Z,5.75
2023-02-15T18:11:54.612Z,5.67
2023-02-15T18:14:58.191Z,5.61
2023-02-15T18:17:59.543Z,5.56
2023-02-15T18:21:02.516Z,5.48
2023-02-15T18:24:04.677Z,5.43
2023-02-15T18:27:07.397Z,5.32
2023-02-15T18:30:14.286Z,5.27
2023-02-15T18:36:51.265Z,5.11
2023-02-15T18:39:55.019Z,5.12
2023-02-15T18:42:56.699Z,5.00
2023-02-15T18:45:58.050Z,4.93
2023-02-15T18:49:00.601Z,4.90
2023-02-15T18:52:02.869Z,4.85
2023-02-15T18:55:17.083Z,4.78
2023-02-15T18:58:22.287Z,4.71
2023-02-15T19:01:23.696Z,4.61
2023-02-15T19:04:26.237Z,4.58
2023-02-15T19:07:37.522Z,4.55
2023-02-15T19:10:39.464Z,4.50
2023-02-15T19:17:01.762Z,4.37
2023-02-15T19:23:25.923Z,4.31
2023-02-15T19:26:44.602Z,4.24
2023-02-15T19:29:48.734Z,4.20
2023-02-15T19:32:51.386Z,4.13
2023-02-15T19:35:56.447Z,4.07
2023-02-15T19:38:59.002Z,4.07
2023-02-15T19:42:00.958Z,4.02
2023-02-15T19:48:23.005Z,3.94
2023-02-15T19:51:25.994Z,3.89
2023-02-15T19:54:30.024Z,3.85
2023-02-15T19:57:33.195Z,3.76
2023-02-15T20:00:34.535Z,3.72
2023-02-15T20:03:37.378Z,3.71
2023-02-15T20:06:38.862Z,3.68
2023-02-15T20:09:43.949Z,3.67
2023-02-15T20:12:47.549Z,3.62
2023-02-15T20:19:12.228Z,3.43
2023-02-15T20:22:23.015Z,3.39
2023-02-15T20:25:26.606Z,3.35
2023-02-15T20:28:31.719Z,3.36
2023-02-15T20:31:33.189Z,3.35
2023-02-15T20:34:35.780Z,3.29
2023-02-15T20:37:37.247Z,3.27
2023-02-15T20:41:00.638Z,3.24
2023-02-15T20:44:15.810Z,3.18
2023-02-15T20:47:18.969Z,3.14
2023-02-15T20:50:22.592Z,3.15
2023-02-15T20:53:25.705Z,3.07
2023-02-15T20:56:27.123Z,3.01
2023-02-15T21:09:38.018Z,2.84
2023-02-15T21:12:40.783Z,2.80
2023-02-15T21:15:42.917Z,2.78
2023-02-15T21:18:45.761Z,2.70
2023-02-15T21:21:49.962Z,2.73
2023-02-15T21:24:54.181Z,2.71
2023-02-15T21:27:56.998Z,2.68
2023-02-15T21:30:59.137Z,2.64
2023-02-15T21:34:02.204Z,2.61
2023-02-15T21:37:04.282Z,2.54
2023-02-15T21:40:15.660Z,2.50
2023-02-15T21:43:38.022Z,2.48
2023-02-15T21:50:41.085Z,2.40
2023-02-15T21:53:45.214Z,2.34
2023-02-15T21:56:49.267Z,2.30
2023-02-15T21:59:51.882Z,2.30
2023-02-15T22:02:55.662Z,2.27
2023-02-15T22:05:58.276Z,2.23
2023-02-15T22:09:00.807Z,2.19
2023-02-15T22:12:02.138Z,2.14
2023-02-15T22:15:05.676Z,2.14
2023-02-15T22:18:19.574Z,2.15
2023-02-15T22:21:22.768Z,2.08
2023-02-15T22:24:24.082Z,2.07
2023-02-15T22:27:28.893Z,2.03
2023-02-15T22:30:32.874Z,2.02
2023-02-15T22:33:36.137Z,1.98
2023-02-15T22:36:38.702Z,1.94
2023-02-15T22:39:41.675Z,1.89
2023-02-15T22:42:46.464Z,1.90
2023-02-15T22:45:49.307Z,1.86
2023-02-15T22:48:51.659Z,1.79
2023-02-15T22:51:54.254Z,1.78
2023-02-15T22:54:55.571Z,1.77
2023-02-15T22:57:58.863Z,1.82
2023-02-15T23:01:01.124Z,1.83
2023-02-15T23:04:04.907Z,1.80
2023-02-15T23:07:12.808Z,1.79
2023-02-15T23:10:21.886Z,1.79
2023-02-15T23:13:26.315Z,1.77
2023-02-15T23:16:28.928Z,1.75
2023-02-15T23:19:31.428Z,1.66
2023-02-15T23:25:54.165Z,1.64
2023-02-15T23:28:58.764Z,1.59
2023-02-15T23:32:00.266Z,1.62
2023-02-15T23:38:29.956Z,1.60
2023-02-15T23:41:31.075Z,1.62
2023-02-15T23:44:34.338Z,1.65
2023-02-15T23:47:57.780Z,1.68
2023-02-15T23:51:00.385Z,1.68
2023-02-15T23:54:02.924Z,1.70
2023-02-15T23:57:04.570Z,1.71
